Time;durP1;ratioP1;P1;durP2;ratioP2;P2;SDS_P1;SDS_P2;PMS_P1;PMS_P2;Temp;Humidity;BMP_temperature;BMP_pressure;BME280_temperature;BME280_humidity;BME280_pressure;Samples;Min_cycle;Max_cycle;Signal;HPM_P1;HPM_P2
2022/06/22 00:01:52;;;;;;;8.47;5.47;;;24.10;79.50;;;;;;5058741;28;20434;-88
2022/06/22 00:04:22;;;;;;;8.00;6.00;;;24.00;79.30;;;;;;5055419;28;20478;-88
2022/06/22 00:06:53;;;;;;;5.80;5.30;;;24.00;79.20;;;;;;5038185;28;20450;-87
2022/06/22 00:09:25;;;;;;;6.63;6.00;;;24.00;79.40;;;;;;5033364;28;20453;-88
2022/06/22 00:11:52;;;;;;;7.30;6.00;;;24.00;80.20;;;;;;5032793;28;20453;-87
2022/06/22 00:14:26;;;;;;;6.50;5.90;;;24.00;80.60;;;;;;5033055;28;20836;-88
2022/06/22 00:16:55;;;;;;;10.50;5.77;;;24.00;80.80;;;;;;5033293;28;20446;-88
2022/06/22 00:19:29;;;;;;;6.67;6.07;;;23.90;81.20;;;;;;5033268;28;20445;-88
2022/06/22 00:21:56;;;;;;;8.03;6.83;;;23.90;81.80;;;;;;5033212;28;20454;-87
2022/06/22 00:24:50;;;;;;;10.60;8.60;;;23.90;81.80;;;;;;5084345;22;20492;-88
2022/06/22 00:27:33;;;;;;;8.70;7.90;;;23.80;83.00;;;;;;5034450;28;20437;-88
2022/06/22 00:30:14;;;;;;;8.77;7.97;;;23.80;82.90;;;;;;5052739;28;20570;-87
2022/06/22 00:32:54;;;;;;;12.67;7.93;;;23.60;83.50;;;;;;5052794;28;20449;-88
2022/06/22 00:35:48;;;;;;;7.80;7.10;;;23.60;84.10;;;;;;5053186;28;20475;-88
2022/06/22 00:38:18;;;;;;;8.17;7.37;;;23.50;84.50;;;;;;5052772;28;20429;-87
2022/06/22 00:40:47;;;;;;;7.57;6.90;;;23.40;85.20;;;;;;5053298;28;20480;-88
2022/06/22 00:43:16;;;;;;;9.17;7.50;;;23.40;85.70;;;;;;5055174;28;20452;-87
2022/06/22 00:45:45;;;;;;;8.03;7.20;;;23.40;86.10;;;;;;5055859;28;20464;-87
2022/06/22 00:48:23;;;;;;;8.70;7.80;;;23.40;86.50;;;;;;5072821;28;20445;-87
2022/06/22 00:50:57;;;;;;;7.90;7.10;;;23.30;86.80;;;;;;5063485;28;20870;-87
2022/06/22 00:53:31;;;;;;;8.10;7.40;;;23.30;86.90;;;;;;5052181;28;20538;-87
2022/06/22 00:56:03;;;;;;;7.17;6.57;;;23.30;87.40;;;;;;5052619;28;20467;-88
2022/06/22 00:58:37;;;;;;;7.67;6.87;;;23.20;88.30;;;;;;5052675;28;20440;-87
2022/06/22 01:01:12;;;;;;;7.67;7.07;;;23.20;88.50;;;;;;5052920;28;20487;-88
2022/06/22 01:03:42;;;;;;;8.90;8.20;;;23.20;88.50;;;;;;5052362;28;20507;-87
2022/06/22 01:06:14;;;;;;;9.30;8.27;;;23.30;88.70;;;;;;5052049;28;20460;-87
2022/06/22 01:08:46;;;;;;;9.10;8.20;;;23.30;88.90;;;;;;5052981;28;20448;-88
2022/06/22 01:14:07;;;;;;;8.30;7.60;;;23.30;89.90;;;;;;5051673;28;20981;-88
2022/06/22 01:16:39;;;;;;;9.33;8.47;;;23.30;89.80;;;;;;5060296;28;20436;-88
2022/06/22 01:19:20;;;;;;;8.50;7.80;;;23.30;89.80;;;;;;5075605;28;20420;-87
2022/06/22 01:21:56;;;;;;;10.57;8.30;;;23.30;90.10;;;;;;5069843;28;20480;-87
2022/06/22 01:24:30;;;;;;;8.80;7.90;;;23.30;90.20;;;;;;5067287;28;20483;-87
2022/06/22 01:27:24;;;;;;;9.07;7.73;;;23.30;90.50;;;;;;5072114;28;20477;-88
2022/06/22 01:29:53;;;;;;;9.73;8.83;;;23.30;90.40;;;;;;5063173;28;20441;-88
2022/06/22 01:32:23;;;;;;;9.40;8.10;;;23.30;90.60;;;;;;5057764;28;20445;-87
2022/06/22 01:34:50;;;;;;;12.33;8.70;;;23.20;90.70;;;;;;5064956;28;20467;-87
2022/06/22 01:37:20;;;;;;;8.70;8.00;;;23.30;90.90;;;;;;5060739;28;20827;-87
2022/06/22 01:39:47;;;;;;;9.77;8.73;;;23.20;91.00;;;;;;5058030;28;20448;-88
2022/06/22 01:42:20;;;;;;;10.97;8.60;;;23.20;91.10;;;;;;5057479;28;20807;-87
2022/06/22 01:44:55;;;;;;;10.07;8.57;;;23.20;91.10;;;;;;5058112;28;20468;-87
2022/06/22 01:47:29;;;;;;;12.73;9.00;;;23.20;91.30;;;;;;5057999;28;20447;-87
2022/06/22 01:50:05;;;;;;;9.87;8.97;;;23.10;91.50;;;;;;5063512;28;20428;-87
2022/06/22 01:52:48;;;;;;;10.93;9.83;;;23.00;91.70;;;;;;5078946;28;20445;-87
2022/06/22 01:55:25;;;;;;;10.60;9.60;;;23.00;92.00;;;;;;5057685;28;20468;-87
2022/06/22 01:58:02;;;;;;;12.50;9.60;;;23.00;92.20;;;;;;5057721;28;20441;-88
2022/06/22 02:00:29;;;;;;;9.73;8.47;;;23.00;92.30;;;;;;5056399;28;20973;-87
2022/06/22 02:03:02;;;;;;;9.57;8.47;;;23.00;92.40;;;;;;5055677;28;20487;-87
2022/06/22 02:05:33;;;;;;;10.57;9.33;;;23.00;92.40;;;;;;5055608;28;20468;-86
2022/06/22 02:08:09;;;;;;;9.60;8.60;;;23.00;92.50;;;;;;5056071;28;20449;-87
2022/06/22 02:10:43;;;;;;;8.87;8.07;;;23.00;92.70;;;;;;5055673;28;20493;-87
2022/06/22 02:13:25;;;;;;;9.50;8.60;;;23.00;93.10;;;;;;5055854;28;20444;-87
2022/06/22 02:15:57;;;;;;;8.87;7.97;;;23.00;93.30;;;;;;5063185;28;20455;-86
2022/06/22 02:18:31;;;;;;;9.60;8.80;;;23.00;93.50;;;;;;5064569;28;20440;-87
2022/06/22 02:21:00;;;;;;;9.33;8.27;;;22.90;93.70;;;;;;5056352;28;20476;-88
2022/06/22 02:23:30;;;;;;;9.50;8.50;;;22.90;93.80;;;;;;5056219;28;20487;-87
2022/06/22 02:26:12;;;;;;;8.97;7.63;;;23.00;93.90;;;;;;5079624;28;20432;-87
2022/06/22 02:28:41;;;;;;;9.20;7.73;;;23.00;94.00;;;;;;5074083;28;20449;-88
2022/06/22 02:31:08;;;;;;;9.37;8.43;;;23.10;94.20;;;;;;5064423;28;20452;-86
2022/06/22 02:33:38;;;;;;;9.60;8.80;;;23.10;94.20;;;;;;5071859;28;20524;-88
2022/06/22 02:36:06;;;;;;;19.33;16.40;;;23.10;94.40;;;;;;5067368;28;20445;-88
2022/06/22 02:38:33;;;;;;;13.83;10.93;;;23.10;94.40;;;;;;5055385;28;20457;-87
2022/06/22 02:46:35;;;;;;;12.93;9.50;;;23.20;95.60;;;;;;5076844;28;20424;-87
2022/06/22 02:49:06;;;;;;;14.57;11.47;;;23.20;96.30;;;;;;5057031;28;20452;-87
2022/06/22 02:51:38;;;;;;;11.30;10.30;;;23.20;98.10;;;;;;5055006;28;20852;-88
2022/06/22 02:54:08;;;;;;;10.13;9.13;;;23.10;97.80;;;;;;5055238;28;20480;-88
2022/06/22 02:56:41;;;;;;;10.67;9.67;;;23.00;97.70;;;;;;5054826;28;20449;-88
2022/06/22 02:59:10;;;;;;;10.23;9.20;;;22.90;99.00;;;;;;5055158;28;20977;-87
2022/06/22 03:01:39;;;;;;;13.57;9.77;;;22.90;99.50;;;;;;5054777;28;20484;-86
2022/06/22 03:04:10;;;;;;;13.33;10.27;;;22.80;99.60;;;;;;5054283;28;20496;-86
2022/06/22 03:06:42;;;;;;;10.20;9.20;;;22.80;99.90;;;;;;5054281;28;20453;-86
2022/06/22 03:09:09;;;;;;;10.03;9.13;;;22.80;99.90;;;;;;5055439;28;20945;-86
2022/06/22 03:11:41;;;;;;;12.37;11.17;;;22.80;99.90;;;;;;5056127;28;20445;-86
2022/06/22 03:14:18;;;;;;;11.73;10.43;;;22.90;99.90;;;;;;5054235;28;20472;-86
2022/06/22 03:16:49;;;;;;;12.80;11.53;;;22.90;99.90;;;;;;5054295;28;20932;-85
2022/06/22 03:19:20;;;;;;;12.80;11.57;;;22.80;99.90;;;;;;5053872;28;20456;-86
2022/06/22 03:21:48;;;;;;;13.00;11.87;;;22.70;99.90;;;;;;5053575;28;20488;-85
2022/06/22 03:24:26;;;;;;;13.97;12.67;;;22.70;99.90;;;;;;5053707;28;20472;-85
2022/06/22 03:27:00;;;;;;;12.93;11.80;;;22.70;99.90;;;;;;5053698;28;20809;-85
2022/06/22 03:29:34;;;;;;;12.57;11.50;;;22.80;99.90;;;;;;5055132;28;20452;-86
2022/06/22 03:32:04;;;;;;;16.20;12.50;;;22.70;99.90;;;;;;5055924;28;20448;-85
2022/06/22 03:34:37;;;;;;;12.77;11.53;;;22.60;99.90;;;;;;5053540;28;20547;-86
2022/06/22 03:37:10;;;;;;;12.60;11.40;;;22.60;99.90;;;;;;5053485;28;20447;-86
2022/06/22 03:39:41;;;;;;;14.07;12.73;;;22.60;99.90;;;;;;5093336;22;20526;-86
2022/06/22 03:42:13;;;;;;;12.33;11.23;;;22.60;99.90;;;;;;5072998;28;20476;-82
2022/06/22 03:44:46;;;;;;;15.40;12.40;;;22.50;99.90;;;;;;5072489;28;20440;-84
2022/06/22 03:47:17;;;;;;;13.20;12.07;;;22.60;99.90;;;;;;5072855;28;20452;-84
2022/06/22 03:49:47;;;;;;;13.07;11.67;;;22.60;99.90;;;;;;5072203;28;20491;-82
2022/06/22 03:52:19;;;;;;;14.30;11.73;;;22.50;99.90;;;;;;5069007;28;20510;-84
2022/06/22 03:54:57;;;;;;;15.63;14.17;;;22.50;99.90;;;;;;5060299;28;20453;-85
2022/06/22 03:57:29;;;;;;;13.90;12.80;;;22.50;99.90;;;;;;5060766;28;20449;-82
2022/06/22 03:59:57;;;;;;;14.10;12.80;;;22.50;99.90;;;;;;5064708;28;20472;-85
2022/06/22 04:02:25;;;;;;;12.87;11.70;;;22.50;99.90;;;;;;5067220;28;20506;-83
2022/06/22 04:04:55;;;;;;;14.10;12.93;;;22.50;99.90;;;;;;5072024;28;20455;-85
2022/06/22 04:07:23;;;;;;;14.57;13.07;;;22.60;99.90;;;;;;5074053;28;20452;-86
2022/06/22 04:09:54;;;;;;;13.43;12.40;;;22.50;99.90;;;;;;5064686;28;20472;-82
2022/06/22 04:12:26;;;;;;;13.77;12.50;;;22.50;99.90;;;;;;5057644;28;20452;-83
2022/06/22 04:15:02;;;;;;;13.57;12.27;;;22.60;99.90;;;;;;5058041;28;20460;-82
2022/06/22 04:17:35;;;;;;;13.30;11.97;;;22.60;99.90;;;;;;5059724;28;20444;-83
2022/06/22 04:20:06;;;;;;;13.20;12.00;;;22.70;99.90;;;;;;5056851;28;20468;-81
2022/06/22 04:22:41;;;;;;;12.10;11.00;;;22.70;99.90;;;;;;5057196;28;20484;-83
2022/06/22 04:25:27;;;;;;;12.50;11.47;;;22.80;99.90;;;;;;5063709;28;20837;-82
2022/06/22 04:27:56;;;;;;;12.10;11.03;;;22.90;99.90;;;;;;5058449;28;20467;-81
2022/06/22 04:30:27;;;;;;;13.20;11.97;;;22.90;99.90;;;;;;5058303;28;20998;-83
2022/06/22 04:33:00;;;;;;;11.73;9.73;;;23.00;99.90;;;;;;5058581;28;20437;-83
2022/06/22 04:35:34;;;;;;;12.33;11.07;;;23.00;99.90;;;;;;5062999;28;20432;-83
2022/06/22 04:38:07;;;;;;;11.20;10.20;;;23.10;99.90;;;;;;5058302;28;20448;-82
2022/06/22 04:40:46;;;;;;;11.10;10.00;;;23.10;99.90;;;;;;5057595;28;20860;-83
2022/06/22 04:43:13;;;;;;;11.70;10.20;;;23.20;99.90;;;;;;5057869;28;20452;-83
2022/06/22 04:45:45;;;;;;;10.57;8.93;;;23.20;99.90;;;;;;5058456;28;20503;-83
2022/06/22 04:48:19;;;;;;;11.10;10.10;;;23.30;99.90;;;;;;5057541;28;20526;-83
2022/06/22 04:50:48;;;;;;;10.90;9.90;;;23.40;99.90;;;;;;5058028;28;20471;-83
2022/06/22 04:53:20;;;;;;;12.00;10.90;;;23.40;99.90;;;;;;5060081;28;20445;-83
2022/06/22 04:55:48;;;;;;;11.20;10.10;;;23.40;99.90;;;;;;5058988;28;20968;-83
2022/06/22 04:58:29;;;;;;;13.60;10.47;;;23.40;99.90;;;;;;5057235;28;20465;-82
2022/06/22 05:00:58;;;;;;;10.20;9.40;;;23.30;99.90;;;;;;5063087;28;20448;-83
2022/06/22 05:03:24;;;;;;;9.23;8.40;;;23.30;99.90;;;;;;5058572;28;20440;-83
2022/06/22 05:05:52;;;;;;;10.40;9.47;;;23.20;99.90;;;;;;5063212;28;20606;-82
2022/06/22 05:08:26;;;;;;;8.67;7.87;;;23.10;99.90;;;;;;5062737;28;20465;-84
2022/06/22 05:10:57;;;;;;;11.27;8.70;;;23.10;99.90;;;;;;5056800;28;20444;-83
2022/06/22 05:13:27;;;;;;;9.93;8.70;;;23.00;99.70;;;;;;5054590;28;20444;-83
2022/06/22 05:16:01;;;;;;;10.13;9.23;;;23.00;99.70;;;;;;5058305;28;20832;-83
2022/06/22 05:18:31;;;;;;;9.60;8.80;;;22.90;99.70;;;;;;5054539;28;20460;-84
2022/06/22 05:21:06;;;;;;;8.77;7.87;;;22.90;99.40;;;;;;5066450;28;20417;-81
2022/06/22 05:23:33;;;;;;;9.80;8.80;;;23.00;99.30;;;;;;5051893;28;20432;-83
2022/06/22 05:26:03;;;;;;;9.13;8.00;;;23.10;99.00;;;;;;5058020;28;21119;-82
2022/06/22 05:28:35;;;;;;;9.10;8.30;;;23.30;98.50;;;;;;5057705;28;20448;-83
2022/06/22 05:31:07;;;;;;;9.30;8.60;;;23.60;98.30;;;;;;5058342;28;20449;-82
2022/06/22 05:33:36;;;;;;;8.97;8.13;;;23.80;97.50;;;;;;5055925;28;21103;-82
2022/06/22 05:36:06;;;;;;;10.83;9.37;;;24.10;96.50;;;;;;5055275;28;20800;-83
2022/06/22 05:38:35;;;;;;;11.40;10.20;;;24.30;96.00;;;;;;5055079;28;20522;-83
2022/06/22 05:41:04;;;;;;;9.03;8.23;;;24.50;95.60;;;;;;5054919;28;20936;-83
2022/06/22 05:43:33;;;;;;;10.63;9.47;;;24.50;95.50;;;;;;5053442;28;20929;-84
2022/06/22 05:46:02;;;;;;;9.77;8.77;;;24.70;95.30;;;;;;5053433;28;20469;-84
2022/06/22 05:48:33;;;;;;;10.73;9.00;;;25.00;95.00;;;;;;5053150;28;20461;-83
2022/06/22 05:51:03;;;;;;;10.70;9.53;;;25.30;94.60;;;;;;5054122;28;20460;-83
2022/06/22 05:53:34;;;;;;;10.73;9.87;;;25.60;94.00;;;;;;5055759;28;20491;-83
2022/06/22 05:56:13;;;;;;;10.70;9.73;;;25.60;93.70;;;;;;5054425;28;20486;-83
2022/06/22 05:58:45;;;;;;;9.77;9.00;;;25.50;94.00;;;;;;5055561;28;20915;-83
2022/06/22 06:01:21;;;;;;;11.23;10.20;;;25.40;94.00;;;;;;5052459;28;20459;-82
2022/06/22 06:03:54;;;;;;;12.87;11.63;;;25.20;94.40;;;;;;5053855;28;20502;-83
2022/06/22 06:06:25;;;;;;;13.43;12.33;;;25.20;95.20;;;;;;5055030;28;20449;-83
2022/06/22 06:08:57;;;;;;;13.53;12.10;;;25.00;95.70;;;;;;5057354;28;20475;-83
2022/06/22 06:11:28;;;;;;;11.93;10.70;;;24.90;96.40;;;;;;5059520;28;20445;-82
2022/06/22 06:14:01;;;;;;;11.97;10.97;;;24.80;96.80;;;;;;5057854;28;20955;-83
2022/06/22 06:16:37;;;;;;;13.43;12.40;;;24.60;96.70;;;;;;5058548;28;20444;-83
2022/06/22 06:19:07;;;;;;;13.27;12.17;;;24.40;97.30;;;;;;5058224;28;21042;-83
2022/06/22 06:21:37;;;;;;;15.70;12.80;;;24.40;97.70;;;;;;5062308;28;20563;-81
2022/06/22 06:24:11;;;;;;;13.97;12.67;;;24.40;97.90;;;;;;5065746;28;20490;-83
2022/06/22 06:29:32;;;;;;;14.33;13.03;;;24.40;97.80;;;;;;5061173;28;20452;-83
2022/06/22 06:32:16;;;;;;;13.13;11.20;;;24.30;98.00;;;;;;5064696;28;20449;-81
2022/06/22 06:34:52;;;;;;;12.47;11.17;;;24.20;98.10;;;;;;5062419;28;20444;-83
2022/06/22 06:37:24;;;;;;;12.60;11.50;;;24.40;97.80;;;;;;5058736;28;20452;-82
2022/06/22 06:39:52;;;;;;;11.80;10.83;;;24.40;97.60;;;;;;5056259;28;20554;-83
2022/06/22 06:42:32;;;;;;;12.17;11.07;;;24.50;96.80;;;;;;5061452;28;20483;-82
2022/06/22 06:45:00;;;;;;;11.87;10.67;;;24.50;96.60;;;;;;5061109;28;20432;-83
2022/06/22 06:47:32;;;;;;;12.40;11.37;;;24.50;96.30;;;;;;5058571;28;20476;-83
2022/06/22 06:50:07;;;;;;;11.33;10.43;;;24.50;96.30;;;;;;5058658;28;20460;-82
2022/06/22 06:52:42;;;;;;;12.43;11.13;;;24.60;95.90;;;;;;5058630;28;20615;-82
2022/06/22 06:55:20;;;;;;;11.80;10.80;;;24.60;95.80;;;;;;5058128;28;20436;-83
2022/06/22 06:57:56;;;;;;;12.80;11.23;;;24.60;95.60;;;;;;5056414;28;20445;-83
2022/06/22 07:00:22;;;;;;;11.83;10.93;;;24.60;95.50;;;;;;5060794;28;20808;-83
2022/06/22 07:02:49;;;;;;;11.20;10.23;;;24.60;95.60;;;;;;5061280;28;21004;-83
2022/06/22 07:05:21;;;;;;;12.10;9.80;;;24.50;96.10;;;;;;5063095;28;20441;-80
2022/06/22 07:07:53;;;;;;;12.60;10.63;;;24.40;96.80;;;;;;5069190;28;20782;-81
2022/06/22 07:10:24;;;;;;;12.47;11.20;;;24.30;97.80;;;;;;5064323;28;20452;-81
2022/06/22 07:12:56;;;;;;;11.70;10.20;;;24.20;98.80;;;;;;5065153;28;20471;-82
2022/06/22 07:15:29;;;;;;;12.07;10.97;;;24.10;98.80;;;;;;5064570;28;20459;-81
2022/06/22 07:18:00;;;;;;;13.17;10.50;;;24.00;99.60;;;;;;5064060;28;20445;-82
2022/06/22 07:20:32;;;;;;;12.70;11.60;;;24.00;99.90;;;;;;5063058;28;20539;-82
2022/06/22 07:23:04;;;;;;;12.83;11.57;;;23.90;99.90;;;;;;5063403;28;21081;-82
2022/06/22 07:25:37;;;;;;;12.97;11.50;;;23.80;99.90;;;;;;5063450;28;20437;-80
2022/06/22 07:28:11;;;;;;;13.40;12.10;;;23.90;99.90;;;;;;5060396;28;20445;-81
2022/06/22 07:30:41;;;;;;;12.77;10.47;;;23.80;99.90;;;;;;5059321;28;20456;-80
2022/06/22 07:33:14;;;;;;;11.60;10.40;;;23.80;99.90;;;;;;5061288;28;20460;-82
2022/06/22 07:35:47;;;;;;;12.43;11.33;;;23.90;99.90;;;;;;5060032;28;20453;-82
2022/06/22 07:38:33;;;;;;;11.97;10.20;;;23.80;99.90;;;;;;5060262;28;20944;-81
2022/06/22 07:43:45;;;;;;;11.57;10.43;;;23.60;99.90;;;;;;5069746;28;20518;-80
2022/06/22 07:46:18;;;;;;;13.23;11.47;;;23.60;99.90;;;;;;5065410;28;20825;-82
2022/06/22 07:48:47;;;;;;;13.57;11.40;;;23.60;99.90;;;;;;5073271;28;20472;-79
2022/06/22 07:51:22;;;;;;;13.37;12.00;;;23.50;99.90;;;;;;5076871;28;20425;-81
2022/06/22 07:53:55;;;;;;;13.60;11.33;;;23.60;99.90;;;;;;5071356;28;20432;-80
2022/06/22 07:56:29;;;;;;;14.60;12.10;;;23.50;99.90;;;;;;5065864;28;20441;-82
2022/06/22 07:58:59;;;;;;;12.07;10.83;;;23.60;99.90;;;;;;5060767;28;20479;-82
2022/06/22 08:01:29;;;;;;;13.53;12.33;;;23.60;99.90;;;;;;5060999;28;20448;-82
2022/06/22 08:04:02;;;;;;;12.10;11.20;;;23.60;99.90;;;;;;5061291;28;20516;-82
2022/06/22 08:06:34;;;;;;;11.90;10.77;;;23.50;99.90;;;;;;5060555;28;20471;-82
2022/06/22 08:09:06;;;;;;;12.50;11.20;;;23.50;99.90;;;;;;5060173;28;20469;-80
2022/06/22 08:11:37;;;;;;;13.73;11.10;;;23.60;99.90;;;;;;5059856;28;20515;-81
2022/06/22 08:14:08;;;;;;;13.77;12.40;;;23.80;99.90;;;;;;5060082;28;20445;-82
2022/06/22 08:16:39;;;;;;;12.67;11.53;;;24.00;99.90;;;;;;5061016;28;20457;-82
2022/06/22 08:19:06;;;;;;;11.97;10.90;;;24.30;99.90;;;;;;5063925;28;20472;-81
2022/06/22 08:21:39;;;;;;;10.97;10.00;;;24.50;99.90;;;;;;5062261;28;20543;-81
2022/06/22 08:24:09;;;;;;;13.17;11.93;;;24.70;99.10;;;;;;5062846;28;20475;-81
2022/06/22 08:26:37;;;;;;;12.43;11.23;;;24.80;98.10;;;;;;5063013;28;20455;-80
2022/06/22 08:29:04;;;;;;;37.17;11.77;;;24.90;98.40;;;;;;5062974;28;20472;-81
2022/06/22 08:31:35;;;;;;;11.70;10.80;;;24.90;99.00;;;;;;5062583;28;20448;-80
2022/06/22 08:34:06;;;;;;;13.53;10.67;;;24.50;97.70;;;;;;5061793;28;20476;-80
2022/06/22 08:36:39;;;;;;;11.47;10.50;;;24.40;96.60;;;;;;5062171;28;20452;-82
2022/06/22 08:39:11;;;;;;;13.33;12.03;;;24.50;97.40;;;;;;5062167;28;20528;-80
2022/06/22 08:41:50;;;;;;;11.70;10.47;;;24.50;98.20;;;;;;5062732;28;20452;-81
2022/06/22 08:44:26;;;;;;;10.83;10.00;;;24.50;96.40;;;;;;5062271;28;20444;-82
2022/06/22 08:47:17;;;;;;;11.43;10.53;;;24.40;96.50;;;;;;5064234;28;20459;-81
2022/06/22 08:50:04;;;;;;;11.50;9.97;;;24.40;96.80;;;;;;5062168;28;20465;-82
2022/06/22 08:52:54;;;;;;;12.57;10.50;;;24.40;97.10;;;;;;5060362;28;20443;-80
2022/06/22 08:55:38;;;;;;;12.80;11.57;;;24.30;97.20;;;;;;5040445;28;20445;-81
2022/06/22 08:58:19;;;;;;;13.23;11.93;;;24.40;97.00;;;;;;5046648;28;20440;-81
2022/06/22 09:00:52;;;;;;;12.80;11.60;;;24.40;96.20;;;;;;5060574;28;20479;-82
2022/06/22 09:03:37;;;;;;;12.97;11.77;;;24.40;96.30;;;;;;5067193;28;20481;-81
2022/06/22 09:06:25;;;;;;;13.90;11.23;;;24.30;97.00;;;;;;5060456;28;20485;-82
2022/06/22 09:09:19;;;;;;;13.00;10.93;;;24.40;96.90;;;;;;5069655;28;20464;-79
2022/06/22 09:11:55;;;;;;;10.97;10.13;;;24.60;96.50;;;;;;5074327;28;20463;-82
2022/06/22 09:14:46;;;;;;;13.00;11.70;;;24.80;96.60;;;;;;5065147;28;20523;-82
2022/06/22 09:17:30;;;;;;;11.90;10.80;;;25.10;96.30;;;;;;5061040;28;20465;-82
2022/06/22 09:20:15;;;;;;;12.00;10.83;;;25.20;95.60;;;;;;5063376;28;20473;-82
2022/06/22 09:22:55;;;;;;;11.90;10.70;;;25.30;95.80;;;;;;5065032;28;20502;-82
2022/06/22 09:25:28;;;;;;;13.40;12.40;;;25.40;94.80;;;;;;5060671;28;20484;-82
2022/06/22 09:28:04;;;;;;;14.27;12.20;;;25.40;95.00;;;;;;5059809;28;20445;-80
2022/06/22 09:30:53;;;;;;;12.17;10.93;;;25.40;94.60;;;;;;5061369;28;20546;-81
2022/06/22 09:33:46;;;;;;;13.60;11.60;;;25.40;94.60;;;;;;5069452;28;20436;-82
2022/06/22 09:36:56;;;;;;;12.90;11.13;;;25.60;94.50;;;;;;5061780;28;20520;-82
2022/06/22 09:39:46;;;;;;;12.33;11.13;;;25.60;94.40;;;;;;5070294;22;20901;-87
2022/06/22 09:42:42;;;;;;;12.53;10.80;;;25.70;93.80;;;;;;5057322;28;20456;-86
2022/06/22 09:45:29;;;;;;;12.30;11.10;;;25.70;92.70;;;;;;5079861;28;20428;-86
2022/06/22 09:48:17;;;;;;;15.80;9.67;;;25.40;93.40;;;;;;5074755;28;20471;-86
2022/06/22 09:51:24;;;;;;;11.07;10.17;;;25.50;93.00;;;;;;5056256;28;20474;-86
2022/06/22 09:56:19;;;;;;;9.07;8.37;;;25.70;92.10;;;;;;5056459;28;20438;-87
2022/06/22 09:57:07;;;;;;;10.37;9.27;;;25.80;91.40;;;;;;5055112;28;20453;-86
2022/06/22 09:59:59;;;;;;;11.27;10.10;;;25.80;92.60;;;;;;5053324;28;20486;-87
2022/06/22 10:03:06;;;;;;;10.13;9.30;;;25.80;92.80;;;;;;5054700;28;20449;-86
2022/06/22 10:06:05;;;;;;;11.10;10.00;;;25.70;92.90;;;;;;5045097;28;20449;-87
2022/06/22 10:08:55;;;;;;;12.97;11.33;;;25.70;92.50;;;;;;5019459;28;20454;-86
2022/06/22 10:11:31;;;;;;;11.93;10.50;;;25.70;92.60;;;;;;5036181;28;20457;-86
2022/06/22 10:14:41;;;;;;;14.20;10.53;;;25.60;92.80;;;;;;5035766;28;20819;-87
2022/06/22 10:17:25;;;;;;;11.73;10.63;;;25.50;93.20;;;;;;5036215;28;20453;-87
2022/06/22 10:20:14;;;;;;;12.07;10.97;;;25.30;93.40;;;;;;5036216;28;20478;-86
2022/06/22 10:22:55;;;;;;;12.97;11.40;;;25.30;94.00;;;;;;5039132;28;20484;-86
2022/06/22 10:25:37;;;;;;;13.67;10.40;;;25.20;94.40;;;;;;5058711;28;20446;-86
2022/06/22 10:28:24;;;;;;;13.77;11.00;;;25.10;94.30;;;;;;5051710;28;20441;-86
2022/06/22 10:30:59;;;;;;;12.03;10.93;;;25.10;94.80;;;;;;5042553;28;20445;-86
2022/06/22 10:33:49;;;;;;;12.70;11.40;;;24.70;94.70;;;;;;5035588;28;20854;-86
2022/06/22 10:36:34;;;;;;;10.93;10.00;;;24.30;94.40;;;;;;5035682;28;20507;-87
2022/06/22 10:39:23;;;;;;;11.30;10.20;;;24.30;95.10;;;;;;5034990;28;20477;-86
2022/06/22 10:45:13;;;;;;;13.53;11.13;;;24.50;96.00;;;;;;5034837;28;20556;-86
2022/06/22 10:48:17;;;;;;;12.10;11.10;;;24.60;96.60;;;;;;5034381;28;20451;-86
2022/06/22 10:50:56;;;;;;;13.40;12.17;;;24.70;96.60;;;;;;4999960;28;20449;-86
2022/06/22 10:53:58;;;;;;;12.57;11.40;;;24.80;98.20;;;;;;5034360;28;20903;-87
2022/06/22 10:56:52;;;;;;;14.53;13.33;;;24.70;99.50;;;;;;5035147;28;20828;-86
2022/06/22 10:59:42;;;;;;;15.53;14.13;;;24.10;99.90;;;;;;5033976;28;20489;-86
2022/06/22 11:02:47;;;;;;;16.70;15.27;;;23.60;99.90;;;;;;5040238;28;20473;-86
2022/06/22 11:05:34;;;;;;;17.37;15.93;;;23.00;99.90;;;;;;5036903;28;20441;-87
2022/06/22 11:08:31;;;;;;;18.53;16.60;;;22.60;99.90;;;;;;5037006;28;20446;-86
2022/06/22 11:11:13;;;;;;;15.70;14.10;;;22.30;99.90;;;;;;5042400;28;20452;-86
2022/06/22 11:14:00;;;;;;;15.27;13.97;;;22.10;99.90;;;;;;5024886;28;20544;-86
2022/06/22 11:16:47;;;;;;;14.33;12.93;;;21.90;99.90;;;;;;5033719;28;20442;-87
2022/06/22 11:19:34;;;;;;;14.10;13.00;;;21.80;99.90;;;;;;5034969;28;20470;-86
2022/06/22 11:22:17;;;;;;;12.43;11.20;;;21.80;99.90;;;;;;5038844;28;20457;-86
2022/06/22 11:30:48;;;;;;;15.30;13.90;;;21.60;99.90;;;;;;5037416;28;21024;-86
2022/06/22 11:31:13;;;;;;;15.10;13.60;;;21.60;99.90;;;;;;5034667;28;20453;-87
2022/06/22 11:33:58;;;;;;;13.30;11.97;;;21.70;99.90;;;;;;5034509;28;20437;-86
2022/06/22 11:36:34;;;;;;;13.70;12.47;;;21.80;99.90;;;;;;5034754;28;20507;-87
2022/06/22 11:39:29;;;;;;;14.70;13.40;;;22.00;99.90;;;;;;5037175;28;20859;-88
2022/06/22 11:42:23;;;;;;;14.30;12.83;;;22.20;99.90;;;;;;5041616;28;20528;-86
2022/06/22 11:48:06;;;;;;;14.50;13.23;;;22.60;99.90;;;;;;5038008;28;20980;-88
2022/06/22 11:50:42;;;;;;;13.70;12.60;;;22.80;99.90;;;;;;5038663;28;20480;-86
2022/06/22 11:53:23;;;;;;;13.37;12.00;;;22.90;99.90;;;;;;5037974;28;20441;-87
2022/06/22 11:55:54;;;;;;;13.10;11.87;;;23.10;99.90;;;;;;5037180;28;20438;-87
2022/06/22 11:59:08;;;;;;;13.83;12.60;;;23.20;99.90;;;;;;5038059;28;20445;-87
2022/06/22 12:01:54;;;;;;;11.60;10.73;;;23.50;99.90;;;;;;4992684;28;20448;-85
2022/06/22 12:04:57;;;;;;;13.03;12.03;;;23.70;99.90;;;;;;4994608;28;20905;-86
2022/06/22 12:07:50;;;;;;;13.30;12.10;;;24.00;99.90;;;;;;5032169;28;20480;-85
2022/06/22 12:10:48;;;;;;;14.53;13.27;;;24.30;99.90;;;;;;5038281;28;20470;-87
2022/06/22 12:13:37;;;;;;;12.80;11.67;;;24.60;99.90;;;;;;5037986;28;20441;-87
2022/06/22 12:16:19;;;;;;;11.80;10.90;;;24.80;99.90;;;;;;5038155;28;20809;-88
2022/06/22 12:19:01;;;;;;;13.27;12.00;;;24.80;99.90;;;;;;5037189;28;20474;-88
2022/06/22 12:21:56;;;;;;;20.13;18.53;;;24.80;99.90;;;;;;5036939;28;20496;-88
2022/06/22 12:24:33;;;;;;;12.63;11.63;;;25.00;99.90;;;;;;5057169;28;20473;-91
2022/06/22 12:27:18;;;;;;;11.90;10.90;;;25.10;99.90;;;;;;5058307;28;20465;-88
2022/06/22 12:30:05;;;;;;;12.70;11.43;;;25.10;99.90;;;;;;5072621;28;20473;-88
2022/06/22 12:32:37;;;;;;;12.90;11.67;;;25.20;99.90;;;;;;5070109;28;20543;-88
2022/06/22 12:35:16;;;;;;;13.20;11.77;;;25.30;99.90;;;;;;5058867;28;20506;-88
2022/06/22 12:37:48;;;;;;;12.00;11.10;;;25.50;99.90;;;;;;5051050;28;20450;-88
2022/06/22 12:40:22;;;;;;;11.67;10.70;;;25.60;99.90;;;;;;5037923;28;20478;-89
2022/06/22 12:43:12;;;;;;;11.00;9.90;;;25.70;99.90;;;;;;5035719;28;20456;-88
2022/06/22 12:45:53;;;;;;;12.97;11.77;;;25.50;99.90;;;;;;5034828;28;20478;-87
2022/06/22 12:49:02;;;;;;;11.73;10.50;;;25.30;99.90;;;;;;5036649;28;20461;-87
2022/06/22 12:51:36;;;;;;;12.50;11.17;;;25.50;99.90;;;;;;5036206;28;20454;-87
2022/06/22 12:54:05;;;;;;;14.87;11.30;;;25.60;99.90;;;;;;5033917;28;20603;-88
2022/06/22 12:56:37;;;;;;;13.30;12.10;;;25.70;99.90;;;;;;5033267;28;20442;-88
2022/06/22 12:59:09;;;;;;;11.60;10.47;;;25.80;99.90;;;;;;5033371;28;20493;-88
2022/06/22 13:01:39;;;;;;;11.73;10.50;;;25.90;99.90;;;;;;5032412;28;20449;-88
2022/06/22 13:04:11;;;;;;;12.87;11.80;;;26.00;99.90;;;;;;5032913;28;20480;-87
2022/06/22 13:06:46;;;;;;;11.40;10.50;;;26.00;99.90;;;;;;5033037;28;20438;-88
2022/06/22 13:09:13;;;;;;;11.77;10.67;;;26.00;99.90;;;;;;5032978;28;20481;-88
2022/06/22 13:11:43;;;;;;;12.57;11.30;;;25.90;99.90;;;;;;5032586;28;20484;-88
2022/06/22 13:14:22;;;;;;;11.50;10.30;;;25.80;99.90;;;;;;5032562;28;20442;-88
2022/06/22 13:17:00;;;;;;;12.53;11.20;;;25.80;99.90;;;;;;5032626;28;20443;-88
2022/06/22 13:19:41;;;;;;;12.40;11.20;;;25.50;99.90;;;;;;5054739;22;20498;-87
2022/06/22 13:22:16;;;;;;;14.67;13.17;;;25.30;99.90;;;;;;5056514;28;20480;-88
2022/06/22 13:24:49;;;;;;;13.47;11.90;;;24.70;99.90;;;;;;5056205;28;20510;-87
2022/06/22 13:27:31;;;;;;;13.43;11.40;;;24.40;99.90;;;;;;5056338;28;20429;-88
2022/06/22 13:30:06;;;;;;;15.37;11.73;;;24.30;99.90;;;;;;5042010;28;20465;-87
2022/06/22 13:32:36;;;;;;;13.17;11.10;;;24.10;99.90;;;;;;5036313;28;20945;-87
2022/06/22 13:35:06;;;;;;;13.70;12.40;;;24.00;99.90;;;;;;5036281;28;20576;-87
2022/06/22 13:37:48;;;;;;;15.63;13.00;;;24.10;99.90;;;;;;5036767;28;20449;-87
2022/06/22 13:40:27;;;;;;;13.90;12.60;;;24.00;99.90;;;;;;5036501;28;20465;-87
2022/06/22 13:43:13;;;;;;;13.10;10.67;;;24.10;99.90;;;;;;5037134;28;20445;-87
2022/06/22 13:45:53;;;;;;;13.63;10.07;;;24.00;99.90;;;;;;5061300;28;20434;-87